createdAt,value
2018-03-31T00:01:53.129Z,9.94
2018-03-31T00:04:21.434Z,9.95
2018-03-31T00:06:49.738Z,10.02
2018-03-31T00:09:18.059Z,10.02
2018-03-31T00:11:46.438Z,10.06
2018-03-31T00:14:14.749Z,10.08
2018-03-31T00:16:43.074Z,10.09
2018-03-31T00:19:12.145Z,10.10
2018-03-31T00:21:40.465Z,10.13
2018-03-31T00:24:08.762Z,10.14
2018-03-31T00:26:37.083Z,10.05
2018-03-31T00:29:05.428Z,10.01
2018-03-31T00:31:33.753Z,9.96
2018-03-31T00:34:02.818Z,9.97
2018-03-31T00:36:31.131Z,10.00
2018-03-31T00:39:00.210Z,10.00
2018-03-31T00:41:29.283Z,10.05
2018-03-31T00:43:58.352Z,10.09
2018-03-31T00:46:26.704Z,10.08
2018-03-31T00:48:55.017Z,10.12
2018-03-31T00:51:23.344Z,10.15
2018-03-31T00:53:53.653Z,10.15
2018-03-31T00:56:21.970Z,10.08
2018-03-31T00:58:50.362Z,10.03
2018-03-31T01:01:18.669Z,10.08
2018-03-31T01:03:46.977Z,10.06
2018-03-31T01:06:15.290Z,10.04
2018-03-31T01:08:43.613Z,10.00
2018-03-31T01:11:11.914Z,9.95
2018-03-31T01:13:40.990Z,9.91
2018-03-31T01:16:09.296Z,9.87
2018-03-31T01:18:37.604Z,9.82
2018-03-31T01:21:05.892Z,9.80
2018-03-31T01:23:34.228Z,9.81
2018-03-31T01:26:02.558Z,9.76
2018-03-31T01:28:30.875Z,9.81
2018-03-31T01:30:59.952Z,9.83
2018-03-31T01:33:28.246Z,9.83
2018-03-31T01:35:57.322Z,9.77
2018-03-31T01:38:25.651Z,9.72
2018-03-31T01:40:53.971Z,9.63
2018-03-31T01:43:22.259Z,9.60
2018-03-31T01:45:50.603Z,9.54
2018-03-31T01:48:18.886Z,9.59
2018-03-31T01:50:47.198Z,9.64
2018-03-31T01:53:16.258Z,9.72
2018-03-31T01:55:44.575Z,9.69
2018-03-31T01:58:12.877Z,9.74
2018-03-31T02:00:41.166Z,9.76
2018-03-31T02:03:09.463Z,9.85
2018-03-31T02:05:37.763Z,9.89
2018-03-31T02:08:06.097Z,9.96
2018-03-31T02:10:34.400Z,10.00
2018-03-31T02:13:02.708Z,9.97
2018-03-31T02:15:31.758Z,10.02
2018-03-31T02:18:00.077Z,9.99
2018-03-31T02:20:28.361Z,10.04
2018-03-31T02:22:57.441Z,10.08
2018-03-31T02:25:25.747Z,10.09
2018-03-31T02:27:54.826Z,10.06
2018-03-31T02:30:23.139Z,10.07
2018-03-31T02:32:51.444Z,10.04
2018-03-31T02:35:19.755Z,10.05
2018-03-31T02:37:48.042Z,10.08
2018-03-31T02:40:17.146Z,10.00
2018-03-31T02:42:46.202Z,9.95
2018-03-31T02:45:14.511Z,9.96
2018-03-31T02:47:43.578Z,9.92
2018-03-31T02:50:11.870Z,9.81
2018-03-31T02:52:40.163Z,9.77
2018-03-31T02:55:09.228Z,9.67
2018-03-31T02:57:37.535Z,9.64
2018-03-31T03:00:05.843Z,9.63
2018-03-31T03:02:34.156Z,9.57
2018-03-31T03:05:02.453Z,9.60
2018-03-31T03:07:30.750Z,9.59
2018-03-31T03:09:59.824Z,9.54
2018-03-31T03:12:28.119Z,9.50
2018-03-31T03:14:57.244Z,9.44
2018-03-31T03:17:25.554Z,9.43
2018-03-31T03:19:53.851Z,9.41
2018-03-31T03:22:22.192Z,9.41
2018-03-31T03:24:50.479Z,9.39
2018-03-31T03:27:18.784Z,9.38
2018-03-31T03:29:47.077Z,9.32
2018-03-31T03:32:16.160Z,9.24
2018-03-31T03:34:44.471Z,9.15
2018-03-31T03:37:12.773Z,9.18
2018-03-31T03:39:41.087Z,9.22
2018-03-31T03:42:09.410Z,9.26
2018-03-31T03:44:37.721Z,9.25
2018-03-31T03:47:06.019Z,9.28
2018-03-31T03:49:34.352Z,9.22
2018-03-31T03:52:02.643Z,9.17
2018-03-31T03:54:30.954Z,9.13
2018-03-31T03:56:59.322Z,9.13
2018-03-31T03:59:27.634Z,9.26
2018-03-31T04:01:56.717Z,9.28
2018-03-31T04:04:25.024Z,9.23
2018-03-31T04:06:53.345Z,9.21
2018-03-31T04:09:24.630Z,9.11
2018-03-31T04:11:54.034Z,9.08
2018-03-31T04:14:22.342Z,9.08
2018-03-31T04:16:50.647Z,9.11
2018-03-31T04:19:18.939Z,9.08
2018-03-31T04:21:48.008Z,8.99
2018-03-31T04:24:16.296Z,9.00
2018-03-31T04:26:44.612Z,9.05
2018-03-31T04:29:12.932Z,9.06
2018-03-31T04:31:42.002Z,9.15
2018-03-31T04:34:10.316Z,9.03
2018-03-31T04:36:38.618Z,9.00
2018-03-31T04:39:06.907Z,8.97
2018-03-31T04:41:36.007Z,8.94
2018-03-31T04:44:05.075Z,8.89
2018-03-31T04:46:33.375Z,8.95
2018-03-31T04:49:02.497Z,9.01
2018-03-31T04:51:30.789Z,9.02
2018-03-31T04:53:59.107Z,9.03
2018-03-31T04:56:28.174Z,9.04
2018-03-31T04:58:56.510Z,9.07
2018-03-31T05:01:25.585Z,9.07
2018-03-31T05:03:53.896Z,9.03
2018-03-31T05:06:22.199Z,9.11
2018-03-31T05:08:50.520Z,9.11
2018-03-31T05:11:18.830Z,9.09
2018-03-31T05:13:47.157Z,9.00
2018-03-31T05:16:15.479Z,8.96
2018-03-31T05:18:43.788Z,8.89
2018-03-31T05:21:12.104Z,8.93
2018-03-31T05:23:40.404Z,8.93
2018-03-31T05:26:09.466Z,8.91
2018-03-31T05:28:37.783Z,8.89
2018-03-31T05:31:06.078Z,8.85
2018-03-31T05:33:34.404Z,8.80
2018-03-31T05:36:02.736Z,8.85
2018-03-31T05:38:31.133Z,8.83
2018-03-31T05:40:59.439Z,8.74
2018-03-31T05:43:27.735Z,8.68
2018-03-31T05:45:56.817Z,8.67
2018-03-31T05:48:25.145Z,8.64
2018-03-31T05:50:53.562Z,8.62
2018-03-31T05:53:21.869Z,8.55
2018-03-31T05:55:50.947Z,8.62
2018-03-31T05:58:19.242Z,8.58
2018-03-31T06:00:47.555Z,8.63
2018-03-31T06:03:15.887Z,8.66
2018-03-31T06:05:44.989Z,8.68
2018-03-31T06:08:14.094Z,8.68
2018-03-31T06:10:42.373Z,8.58
2018-03-31T06:13:10.730Z,8.60
2018-03-31T06:15:39.033Z,8.68
2018-03-31T06:18:08.112Z,8.71
2018-03-31T06:20:37.179Z,8.69
2018-03-31T06:23:05.479Z,8.74
2018-03-31T06:25:34.890Z,8.78
2018-03-31T06:28:04.002Z,8.80
2018-03-31T06:30:32.300Z,8.90
2018-03-31T06:33:00.635Z,8.95
2018-03-31T06:35:29.721Z,8.94
2018-03-31T06:37:58.056Z,8.94
2018-03-31T06:40:26.358Z,9.01
2018-03-31T06:42:54.654Z,9.07
2018-03-31T06:45:22.962Z,9.05
2018-03-31T06:47:52.057Z,9.10
2018-03-31T06:50:21.130Z,9.11
2018-03-31T06:52:49.507Z,9.08
2018-03-31T06:55:17.755Z,9.16
2018-03-31T06:57:46.068Z,9.20
2018-03-31T07:00:15.149Z,9.29
2018-03-31T07:02:44.242Z,9.33
2018-03-31T07:05:12.534Z,9.30
2018-03-31T07:07:40.875Z,9.41
2018-03-31T07:10:09.251Z,9.41
2018-03-31T07:12:37.546Z,9.48
2018-03-31T07:15:06.623Z,9.54
2018-03-31T07:17:34.930Z,9.66
2018-03-31T07:20:03.264Z,9.61
2018-03-31T07:22:31.560Z,9.64
2018-03-31T07:24:59.905Z,9.61
2018-03-31T07:27:28.212Z,9.56
2018-03-31T07:29:56.553Z,9.59
2018-03-31T07:32:24.852Z,9.69
2018-03-31T07:34:53.706Z,9.85
2018-03-31T07:37:22.770Z,10.00
2018-03-31T07:39:51.091Z,10.04
2018-03-31T07:42:19.422Z,10.11
2018-03-31T07:44:47.775Z,10.22
2018-03-31T07:47:16.130Z,10.19
2018-03-31T07:49:44.426Z,10.25
2018-03-31T07:52:12.762Z,10.30
2018-03-31T07:54:41.830Z,10.34
2018-03-31T07:57:10.147Z,10.39
2018-03-31T07:59:39.248Z,10.41
2018-03-31T08:02:07.637Z,10.39
2018-03-31T08:04:35.969Z,10.39
2018-03-31T08:07:04.416Z,10.39
2018-03-31T08:09:32.705Z,10.47
2018-03-31T08:12:01.071Z,10.56
2018-03-31T08:14:29.383Z,10.58
2018-03-31T08:16:57.697Z,10.67
2018-03-31T08:19:26.761Z,10.76
2018-03-31T08:21:55.884Z,10.75
2018-03-31T08:24:25.024Z,10.90
2018-03-31T08:26:53.792Z,10.98
2018-03-31T08:29:22.105Z,10.96
2018-03-31T08:31:50.422Z,11.07
2018-03-31T08:34:18.754Z,11.17
2018-03-31T08:36:47.047Z,11.31
2018-03-31T08:39:15.371Z,11.40
2018-03-31T08:41:43.712Z,11.53
2018-03-31T08:44:12.060Z,11.61
2018-03-31T08:46:40.378Z,11.50
2018-03-31T08:49:09.448Z,11.59
2018-03-31T08:51:37.759Z,11.70
2018-03-31T08:54:06.872Z,11.71
2018-03-31T08:56:35.207Z,11.67
2018-03-31T08:59:03.526Z,11.74
2018-03-31T09:01:31.846Z,11.89
2018-03-31T09:04:00.166Z,11.82
2018-03-31T09:06:29.959Z,11.91
2018-03-31T09:08:58.299Z,12.00
2018-03-31T09:11:26.612Z,11.96
2018-03-31T09:13:54.948Z,11.92
2018-03-31T09:16:23.258Z,11.94
2018-03-31T09:18:52.341Z,11.93
2018-03-31T09:21:20.663Z,11.86
2018-03-31T09:23:49.734Z,11.93
2018-03-31T09:26:18.070Z,12.03
2018-03-31T09:28:46.412Z,12.08
2018-03-31T09:31:15.510Z,12.06
2018-03-31T09:33:44.605Z,12.23
2018-03-31T09:36:12.935Z,12.20
2018-03-31T09:38:41.270Z,12.37
2018-03-31T09:41:10.358Z,12.45
2018-03-31T09:43:39.461Z,12.45
2018-03-31T09:46:08.546Z,12.47
2018-03-31T09:48:37.648Z,12.52
2018-03-31T09:51:06.018Z,12.63
2018-03-31T09:53:34.308Z,12.80
2018-03-31T09:56:03.406Z,12.83
2018-03-31T09:58:32.494Z,12.83
2018-03-31T10:01:03.510Z,12.72
2018-03-31T10:03:31.819Z,12.76
2018-03-31T10:06:00.187Z,12.85
2018-03-31T10:08:28.491Z,12.94
2018-03-31T10:10:56.792Z,13.07
2018-03-31T10:13:26.233Z,13.23
2018-03-31T10:15:55.310Z,13.35
2018-03-31T10:18:24.545Z,13.38
2018-03-31T10:20:54.085Z,13.35
2018-03-31T10:23:22.431Z,13.28
2018-03-31T10:25:50.743Z,13.27
2018-03-31T10:28:19.079Z,13.28
2018-03-31T10:30:48.186Z,13.43
2018-03-31T10:33:17.262Z,13.25
2018-03-31T10:35:45.600Z,13.20
2018-03-31T10:38:13.916Z,13.34
2018-03-31T10:40:42.288Z,13.33
2018-03-31T10:43:10.630Z,13.21
2018-03-31T10:45:38.967Z,13.10
2018-03-31T10:48:07.286Z,13.11
2018-03-31T10:50:35.626Z,13.18
2018-03-31T10:53:05.562Z,13.23
2018-03-31T10:55:34.854Z,13.32
2018-03-31T10:58:03.976Z,13.42
2018-03-31T11:00:32.290Z,13.54
2018-03-31T11:03:00.620Z,13.70
2018-03-31T11:05:28.966Z,13.86
2018-03-31T11:07:57.244Z,13.88
2018-03-31T11:10:26.081Z,13.87
2018-03-31T11:12:55.207Z,13.84
2018-03-31T11:15:23.495Z,13.77
2018-03-31T11:17:51.823Z,13.74
2018-03-31T11:20:20.140Z,13.62
2018-03-31T11:22:48.470Z,13.62
2018-03-31T11:25:16.799Z,13.72
2018-03-31T11:27:45.102Z,13.78
2018-03-31T11:30:14.171Z,13.88
2018-03-31T11:32:42.495Z,13.86
2018-03-31T11:35:11.975Z,13.99
2018-03-31T11:37:40.269Z,13.91
2018-03-31T11:40:08.598Z,13.91
2018-03-31T11:42:36.899Z,13.97
2018-03-31T11:45:05.216Z,14.17
2018-03-31T11:47:34.291Z,14.23
2018-03-31T11:50:02.605Z,14.41
2018-03-31T11:52:30.903Z,14.42
2018-03-31T11:54:59.245Z,14.53
2018-03-31T11:57:28.311Z,14.65
2018-03-31T11:59:56.630Z,14.74
2018-03-31T12:02:25.712Z,14.86
2018-03-31T12:04:54.409Z,14.75
2018-03-31T12:07:23.472Z,14.56
2018-03-31T12:09:51.786Z,14.27
2018-03-31T12:12:20.099Z,14.11
2018-03-31T12:14:48.399Z,14.03
2018-03-31T12:17:17.800Z,14.01
2018-03-31T12:19:46.076Z,13.97
2018-03-31T12:22:14.398Z,14.01
2018-03-31T12:24:42.702Z,14.03
2018-03-31T12:27:11.114Z,14.10
2018-03-31T12:29:39.362Z,14.20
2018-03-31T12:32:07.737Z,14.18
2018-03-31T12:34:36.769Z,14.16
2018-03-31T12:37:05.097Z,14.27
2018-03-31T12:39:33.394Z,14.25
2018-03-31T12:42:02.472Z,14.17
2018-03-31T12:44:30.800Z,14.14
2018-03-31T12:46:59.137Z,14.17
2018-03-31T12:49:27.473Z,14.34
2018-03-31T12:51:56.535Z,14.44
2018-03-31T12:57:00.058Z,14.64
2018-03-31T12:59:28.391Z,14.77
2018-03-31T13:01:56.691Z,14.67
2018-03-31T13:04:25.047Z,14.80
2018-03-31T13:06:55.343Z,14.99
2018-03-31T13:09:24.425Z,15.06
2018-03-31T13:11:52.719Z,14.93
2018-03-31T13:14:21.799Z,14.80
2018-03-31T13:16:50.874Z,14.62
2018-03-31T13:19:20.450Z,14.51
2018-03-31T13:21:48.762Z,14.52
2018-03-31T13:24:17.066Z,14.61
2018-03-31T13:26:45.373Z,14.61
2018-03-31T13:29:13.685Z,14.60
2018-03-31T13:31:42.021Z,14.62
2018-03-31T13:34:10.328Z,14.68
2018-03-31T13:36:38.671Z,14.71
2018-03-31T13:39:06.996Z,14.63
2018-03-31T13:41:35.343Z,14.65
2018-03-31T13:44:03.641Z,14.70
2018-03-31T13:46:31.964Z,14.73
2018-03-31T13:49:00.257Z,14.77
2018-03-31T13:51:28.610Z,15.03
2018-03-31T13:53:56.921Z,15.17
2018-03-31T13:56:25.254Z,15.26
2018-03-31T13:58:54.825Z,15.54
2018-03-31T14:01:23.115Z,15.99
2018-03-31T14:03:51.431Z,16.39
2018-03-31T14:06:20.526Z,16.77
2018-03-31T14:08:48.847Z,17.13
2018-03-31T14:11:17.158Z,17.31
2018-03-31T14:13:45.457Z,17.41
2018-03-31T14:16:13.781Z,17.78
2018-03-31T14:18:42.088Z,18.14
2018-03-31T14:21:10.416Z,18.65
2018-03-31T14:23:39.498Z,18.90
2018-03-31T14:26:08.600Z,19.85
2018-03-31T14:28:37.675Z,18.94
2018-03-31T14:31:06.016Z,18.34
2018-03-31T14:33:34.355Z,17.61
2018-03-31T14:36:02.680Z,17.01
2018-03-31T14:38:30.963Z,16.61
2018-03-31T14:40:59.321Z,16.52
2018-03-31T14:43:27.633Z,16.23
2018-03-31T14:45:55.934Z,16.27
2018-03-31T14:48:25.033Z,16.87
2018-03-31T14:50:55.375Z,18.01
2018-03-31T14:53:23.704Z,19.49
2018-03-31T14:55:52.012Z,20.40
2018-03-31T14:58:21.109Z,21.26
2018-03-31T15:00:50.180Z,21.59
2018-03-31T15:03:18.513Z,21.27
2018-03-31T15:05:46.820Z,20.54
2018-03-31T15:08:15.139Z,22.17
2018-03-31T15:10:44.232Z,23.24
2018-03-31T15:13:12.559Z,23.18
2018-03-31T15:15:40.872Z,22.27
2018-03-31T15:18:09.205Z,21.68
2018-03-31T15:20:37.504Z,20.95
2018-03-31T15:23:05.860Z,20.05
2018-03-31T15:25:34.464Z,19.84
2018-03-31T15:28:02.826Z,19.61
2018-03-31T15:30:31.150Z,19.01
2018-03-31T15:33:00.257Z,18.92
2018-03-31T15:35:28.570Z,18.96
2018-03-31T15:37:56.899Z,18.95
2018-03-31T15:40:25.244Z,18.67
2018-03-31T15:42:53.557Z,18.23
2018-03-31T15:45:21.886Z,17.60
2018-03-31T15:47:51.840Z,17.45
2018-03-31T15:50:20.171Z,18.00
2018-03-31T15:52:48.507Z,18.18
2018-03-31T15:55:16.836Z,18.89
2018-03-31T15:57:45.163Z,19.43
2018-03-31T16:00:13.488Z,19.33
2018-03-31T16:02:41.789Z,18.97
2018-03-31T16:05:10.098Z,18.61
2018-03-31T16:07:38.422Z,18.56
2018-03-31T16:10:07.651Z,17.91
2018-03-31T16:12:36.005Z,17.54
2018-03-31T16:15:04.314Z,18.28
2018-03-31T16:17:32.637Z,19.01
2018-03-31T16:20:00.922Z,19.12
2018-03-31T16:22:29.250Z,20.75
2018-03-31T16:24:57.559Z,20.35
2018-03-31T16:27:25.891Z,19.38
2018-03-31T16:29:55.299Z,18.52
2018-03-31T16:32:23.629Z,17.80
2018-03-31T16:34:51.939Z,17.18
2018-03-31T16:37:20.670Z,16.74
2018-03-31T16:39:49.740Z,16.45
2018-03-31T16:42:18.058Z,16.24
2018-03-31T16:44:47.521Z,16.02
2018-03-31T16:47:15.832Z,15.83
2018-03-31T16:49:44.145Z,15.73
2018-03-31T16:52:12.437Z,15.63
2018-03-31T16:54:40.778Z,15.60
2018-03-31T16:57:09.868Z,15.51
2018-03-31T16:59:38.947Z,15.44
2018-03-31T17:02:08.016Z,15.41
2018-03-31T17:04:36.371Z,15.32
2018-03-31T17:07:04.708Z,15.30
2018-03-31T17:09:33.032Z,15.22
2018-03-31T17:12:01.343Z,15.14
2018-03-31T17:14:29.707Z,15.05
2018-03-31T17:16:58.013Z,14.96
2018-03-31T17:19:26.319Z,14.85
2018-03-31T17:21:56.649Z,14.70
2018-03-31T17:24:24.995Z,14.61
2018-03-31T17:26:53.303Z,14.42
2018-03-31T17:29:22.386Z,14.21
2018-03-31T17:31:51.523Z,13.94
2018-03-31T17:34:19.834Z,13.71
2018-03-31T17:36:48.180Z,13.75
2018-03-31T17:39:17.254Z,13.71
2018-03-31T17:41:46.343Z,13.60
2018-03-31T17:44:15.425Z,13.63
2018-03-31T17:46:44.504Z,13.69
2018-03-31T17:49:12.834Z,13.72
2018-03-31T17:51:41.979Z,13.71
2018-03-31T17:54:10.302Z,13.77
2018-03-31T17:56:38.620Z,13.80
2018-03-31T18:01:41.311Z,13.63
2018-03-31T18:04:09.676Z,13.50
2018-03-31T18:06:37.996Z,13.51
2018-03-31T18:09:06.341Z,13.51
2018-03-31T18:11:34.617Z,13.34
2018-03-31T18:14:02.962Z,13.34
2018-03-31T18:16:32.075Z,13.45
2018-03-31T18:19:00.415Z,13.45
2018-03-31T18:21:29.515Z,13.43
2018-03-31T18:23:58.616Z,13.40
2018-03-31T18:26:27.721Z,13.34
2018-03-31T18:28:56.096Z,13.22
2018-03-31T18:31:24.428Z,13.21
2018-03-31T18:33:52.776Z,13.18
2018-03-31T18:36:22.207Z,13.20
2018-03-31T18:38:50.578Z,13.00
2018-03-31T18:41:18.851Z,12.95
2018-03-31T18:43:47.222Z,12.88
2018-03-31T18:46:16.295Z,12.89
2018-03-31T18:48:45.048Z,12.89
2018-03-31T18:51:13.383Z,12.80
2018-03-31T18:53:41.714Z,12.61
2018-03-31T18:56:10.821Z,12.50
2018-03-31T18:58:39.158Z,12.51
2018-03-31T19:01:07.498Z,12.37
2018-03-31T19:03:35.835Z,12.23
2018-03-31T19:06:04.936Z,12.19
2018-03-31T19:08:34.244Z,12.16
2018-03-31T19:11:03.314Z,12.17
2018-03-31T19:13:31.660Z,12.19
2018-03-31T19:16:00.622Z,12.33
2018-03-31T19:18:28.948Z,12.45
2018-03-31T19:20:57.254Z,12.40
2018-03-31T19:23:26.348Z,12.38
2018-03-31T19:25:55.687Z,12.34
2018-03-31T19:28:24.867Z,12.23
2018-03-31T19:30:56.014Z,12.15
2018-03-31T19:33:25.803Z,12.12
2018-03-31T19:36:01.548Z,12.01
2018-03-31T19:38:29.896Z,12.04
2018-03-31T19:40:58.989Z,11.98
2018-03-31T19:43:27.299Z,11.86
2018-03-31T19:45:55.703Z,11.86
2018-03-31T19:48:24.762Z,11.84
2018-03-31T19:50:53.121Z,11.70
2018-03-31T19:53:21.420Z,11.71
2018-03-31T19:55:49.723Z,11.61
2018-03-31T19:58:18.052Z,11.50
2018-03-31T20:00:46.382Z,11.51
2018-03-31T20:03:14.721Z,11.44
2018-03-31T20:05:43.045Z,11.39
2018-03-31T20:08:12.141Z,11.32
2018-03-31T20:10:41.259Z,11.26
2018-03-31T20:13:09.607Z,11.20
2018-03-31T20:15:37.905Z,11.11
2018-03-31T20:18:07.001Z,11.06
2018-03-31T20:20:36.082Z,11.05
2018-03-31T20:23:04.405Z,11.03
2018-03-31T20:25:32.722Z,10.98
2018-03-31T20:28:01.052Z,10.95
2018-03-31T20:30:30.246Z,10.88
2018-03-31T20:32:58.577Z,10.90
2018-03-31T20:35:26.906Z,10.82
2018-03-31T20:37:55.714Z,10.84
2018-03-31T20:40:24.807Z,10.83
2018-03-31T20:42:53.135Z,10.80
2018-03-31T20:45:22.226Z,10.91
2018-03-31T20:47:51.312Z,10.91
2018-03-31T20:50:19.662Z,10.81
2018-03-31T20:52:47.963Z,10.81
2018-03-31T20:55:16.291Z,10.85
2018-03-31T20:57:44.607Z,10.77
2018-03-31T21:00:12.943Z,10.63
2018-03-31T21:02:42.050Z,10.64
2018-03-31T21:05:10.348Z,10.61
2018-03-31T21:07:38.697Z,10.64
2018-03-31T21:10:07.015Z,10.67
2018-03-31T21:12:35.332Z,10.81
2018-03-31T21:15:03.641Z,10.72
2018-03-31T21:17:31.959Z,10.56
2018-03-31T21:20:00.287Z,10.42
2018-03-31T21:22:29.375Z,10.40
2018-03-31T21:24:57.699Z,10.55
2018-03-31T21:27:26.084Z,10.46
2018-03-31T21:29:55.622Z,10.53
2018-03-31T21:32:24.918Z,10.47
2018-03-31T21:34:53.231Z,10.59
2018-03-31T21:37:21.520Z,10.64
2018-03-31T21:39:50.611Z,10.58
2018-03-31T21:42:18.911Z,10.56
2018-03-31T21:44:47.248Z,10.52
2018-03-31T21:47:15.568Z,10.60
2018-03-31T21:49:43.876Z,10.50
2018-03-31T21:52:12.955Z,10.55
2018-03-31T21:54:41.302Z,10.56
2018-03-31T21:57:09.602Z,10.55
2018-03-31T21:59:37.934Z,10.55
2018-03-31T22:02:06.238Z,10.44
2018-03-31T22:04:34.567Z,10.38
2018-03-31T22:07:02.883Z,10.52
2018-03-31T22:09:31.198Z,10.31
2018-03-31T22:11:59.542Z,10.32
2018-03-31T22:14:33.270Z,10.40
2018-03-31T22:17:01.611Z,10.33
2018-03-31T22:19:29.913Z,10.32
2018-03-31T22:21:58.212Z,10.23
2018-03-31T22:24:27.314Z,10.13
2018-03-31T22:26:55.833Z,10.04
2018-03-31T22:29:24.143Z,10.02
2018-03-31T22:31:52.454Z,10.00
2018-03-31T22:34:21.570Z,10.04
2018-03-31T22:36:49.854Z,10.08
2018-03-31T22:39:18.171Z,10.11
2018-03-31T22:41:46.490Z,10.12
2018-03-31T22:44:14.850Z,10.11
2018-03-31T22:46:43.149Z,10.13
2018-03-31T22:49:11.509Z,10.16
2018-03-31T22:51:39.803Z,10.14
2018-03-31T22:54:08.130Z,10.18
2018-03-31T22:56:36.450Z,10.17
2018-03-31T22:59:05.540Z,10.20
2018-03-31T23:01:33.843Z,10.27
2018-03-31T23:04:02.178Z,10.27
2018-03-31T23:06:31.289Z,10.29
2018-03-31T23:08:59.590Z,10.34
2018-03-31T23:11:28.655Z,10.33
2018-03-31T23:13:57.752Z,10.34
2018-03-31T23:16:26.084Z,10.37
2018-03-31T23:18:54.414Z,10.37
2018-03-31T23:21:22.734Z,10.43
2018-03-31T23:23:51.036Z,10.48
2018-03-31T23:26:19.359Z,10.43
2018-03-31T23:28:47.670Z,10.47
2018-03-31T23:31:15.998Z,10.51
2018-03-31T23:33:45.281Z,10.51
2018-03-31T23:36:13.582Z,10.47
2018-03-31T23:38:42.665Z,10.50
2018-03-31T23:41:10.955Z,10.47
2018-03-31T23:43:39.281Z,10.45
2018-03-31T23:46:07.617Z,10.47
2018-03-31T23:48:36.729Z,10.48
2018-03-31T23:51:05.814Z,10.53
2018-03-31T23:53:34.896Z,10.41
2018-03-31T23:56:03.967Z,10.41
2018-03-31T23:58:32.287Z,10.44
